createdAt,value
2018-12-02T00:00:09.120Z,56.60
2018-12-02T00:00:47.279Z,56.60
2018-12-02T00:01:24.820Z,56.60
2018-12-02T00:02:02.790Z,56.60
2018-12-02T00:02:40.579Z,56.70
2018-12-02T00:03:18.061Z,56.70
2018-12-02T00:03:56.166Z,56.60
2018-12-02T00:04:33.829Z,56.60
2018-12-02T00:05:11.511Z,56.70
2018-12-02T00:05:49.118Z,56.70
2018-12-02T00:06:26.981Z,56.60
2018-12-02T00:07:04.502Z,56.70
2018-12-02T00:07:41.972Z,56.70
2018-12-02T00:08:19.819Z,56.70
2018-12-02T00:08:57.761Z,56.70
2018-12-02T00:09:35.363Z,56.70
2018-12-02T00:10:12.911Z,56.60
2018-12-02T00:10:50.258Z,56.70
2018-12-02T00:11:28.030Z,56.70
2018-12-02T00:12:05.851Z,56.70
2018-12-02T00:12:43.503Z,56.80
2018-12-02T00:13:21.382Z,56.70
2018-12-02T00:13:59.220Z,57.40
2018-12-02T00:14:36.908Z,56.80
2018-12-02T00:15:14.333Z,56.80
2018-12-02T00:15:51.991Z,56.70
2018-12-02T00:16:29.613Z,56.70
2018-12-02T00:17:07.548Z,56.70
2018-12-02T00:17:45.056Z,56.70
2018-12-02T00:18:22.622Z,56.80
2018-12-02T00:19:00.995Z,56.80
2018-12-02T00:19:38.711Z,56.80
2018-12-02T00:20:16.221Z,56.80
2018-12-02T00:20:54.072Z,56.80
2018-12-02T00:21:32.435Z,56.80
2018-12-02T00:22:10.231Z,56.80
2018-12-02T00:22:47.831Z,56.80
2018-12-02T00:23:25.606Z,56.80
2018-12-02T00:24:04.274Z,56.90
2018-12-02T00:24:41.932Z,56.80
2018-12-02T00:25:20.143Z,56.90
2018-12-02T00:25:57.932Z,56.80
2018-12-02T00:26:35.525Z,56.90
2018-12-02T00:27:13.342Z,56.80
2018-12-02T00:27:51.112Z,56.90
2018-12-02T00:28:28.864Z,56.80
2018-12-02T00:29:06.525Z,56.90
2018-12-02T00:29:44.214Z,56.80
2018-12-02T00:30:21.747Z,56.90
2018-12-02T00:30:59.359Z,56.90
2018-12-02T00:31:36.912Z,57.00
2018-12-02T00:32:14.863Z,56.90
2018-12-02T00:32:52.463Z,56.90
2018-12-02T00:33:30.183Z,56.90
2018-12-02T00:34:07.699Z,57.00
2018-12-02T00:34:45.154Z,57.00
2018-12-02T00:35:22.816Z,57.00
2018-12-02T00:36:00.476Z,56.90
2018-12-02T00:36:37.988Z,57.00
2018-12-02T00:37:15.563Z,56.90
2018-12-02T00:37:53.229Z,56.90
2018-12-02T00:38:30.794Z,57.00
2018-12-02T00:39:08.298Z,57.00
2018-12-02T00:39:45.771Z,57.00
2018-12-02T00:40:23.590Z,57.00
2018-12-02T00:41:01.316Z,57.00
2018-12-02T00:41:38.732Z,57.00
2018-12-02T00:42:16.426Z,56.90
2018-12-02T00:42:53.934Z,57.00
2018-12-02T00:43:31.476Z,57.00
2018-12-02T00:44:09.325Z,57.00
2018-12-02T00:44:47.134Z,57.00
2018-12-02T00:45:24.855Z,57.00
2018-12-02T00:46:02.388Z,57.00
2018-12-02T00:46:40.147Z,56.90
2018-12-02T00:47:17.839Z,56.90
2018-12-02T00:47:55.635Z,57.00
2018-12-02T00:48:33.224Z,57.00
2018-12-02T00:49:11.179Z,57.00
2018-12-02T00:49:48.986Z,56.90
2018-12-02T00:50:26.697Z,56.90
2018-12-02T00:51:04.489Z,56.90
2018-12-02T00:51:42.242Z,57.00
2018-12-02T00:52:19.798Z,57.00
2018-12-02T00:52:57.526Z,57.00
2018-12-02T00:53:35.046Z,57.00
2018-12-02T00:54:12.680Z,57.00
2018-12-02T00:54:50.218Z,57.00
2018-12-02T00:55:27.938Z,57.00
2018-12-02T00:56:05.309Z,56.90
2018-12-02T00:56:43.326Z,56.80
2018-12-02T00:57:20.983Z,56.70
2018-12-02T00:57:58.638Z,56.70
2018-12-02T00:58:36.142Z,56.70
2018-12-02T00:59:14.464Z,56.70
2018-12-02T00:59:52.536Z,56.80
2018-12-02T01:00:30.306Z,57.60
2018-12-02T01:01:08.139Z,56.90
2018-12-02T01:01:45.634Z,57.00
2018-12-02T01:02:24.066Z,57.00
2018-12-02T01:03:01.591Z,56.90
2018-12-02T01:03:39.328Z,57.00
2018-12-02T01:04:17.580Z,57.00
2018-12-02T01:04:55.178Z,57.20
2018-12-02T01:05:32.916Z,57.10
2018-12-02T01:06:10.291Z,57.20
2018-12-02T01:06:53.409Z,57.20
2018-12-02T01:07:25.681Z,57.10
2018-12-02T01:08:04.042Z,57.40
2018-12-02T01:08:41.901Z,57.20
2018-12-02T01:09:19.659Z,57.20
2018-12-02T01:09:57.330Z,57.10
2018-12-02T01:10:34.800Z,57.20
2018-12-02T01:11:12.479Z,57.20
2018-12-02T01:11:50.087Z,57.30
2018-12-02T01:12:27.950Z,57.30
2018-12-02T01:13:05.693Z,57.30
2018-12-02T01:13:43.192Z,57.20
2018-12-02T01:14:21.172Z,57.30
2018-12-02T01:14:58.837Z,57.20
2018-12-02T01:15:36.816Z,57.10
2018-12-02T01:16:14.428Z,57.20
2018-12-02T01:16:52.100Z,57.20
2018-12-02T01:17:29.538Z,57.20
2018-12-02T01:18:08.178Z,57.10
2018-12-02T01:18:45.897Z,57.10
2018-12-02T01:19:23.279Z,57.20
2018-12-02T01:20:00.884Z,57.20
2018-12-02T01:20:38.443Z,57.20
2018-12-02T01:21:16.135Z,57.30
2018-12-02T01:21:53.759Z,57.30
2018-12-02T01:22:31.356Z,57.30
2018-12-02T01:23:08.888Z,57.40
2018-12-02T01:23:46.360Z,57.30
2018-12-02T01:24:24.003Z,57.40
2018-12-02T01:25:01.726Z,57.30
2018-12-02T01:25:39.568Z,57.30
2018-12-02T01:26:17.509Z,57.20
2018-12-02T01:26:55.288Z,57.30
2018-12-02T01:27:33.025Z,57.30
2018-12-02T01:28:11.641Z,57.30
2018-12-02T01:28:49.370Z,57.30
2018-12-02T01:29:26.951Z,57.30
2018-12-02T01:30:04.578Z,57.40
2018-12-02T01:30:42.030Z,57.30
2018-12-02T01:31:19.894Z,57.20
2018-12-02T01:31:57.585Z,57.20
2018-12-02T01:32:35.298Z,57.20
2018-12-02T01:33:13.883Z,57.30
2018-12-02T01:33:51.508Z,57.30
2018-12-02T01:34:29.242Z,57.30
2018-12-02T01:35:06.653Z,57.90
2018-12-02T01:35:44.309Z,57.40
2018-12-02T01:36:21.862Z,57.20
2018-12-02T01:36:59.394Z,57.30
2018-12-02T01:37:37.241Z,57.30
2018-12-02T01:38:14.761Z,57.30
2018-12-02T01:38:52.364Z,57.40
2018-12-02T01:39:29.966Z,57.40
2018-12-02T01:40:07.585Z,57.30
2018-12-02T01:40:45.183Z,57.20
2018-12-02T01:41:22.698Z,57.30
2018-12-02T01:42:00.172Z,57.40
2018-12-02T01:42:37.891Z,57.40
2018-12-02T01:43:15.451Z,57.40
2018-12-02T01:43:52.970Z,57.40
2018-12-02T01:44:30.618Z,57.40
2018-12-02T01:45:08.205Z,57.40
2018-12-02T01:45:45.936Z,57.40
2018-12-02T01:46:23.350Z,57.90
2018-12-02T01:47:01.017Z,57.30
2018-12-02T01:47:38.568Z,57.40
2018-12-02T01:48:16.437Z,57.40
2018-12-02T01:48:54.135Z,57.40
2018-12-02T01:49:31.871Z,57.30
2018-12-02T01:50:10.338Z,57.40
2018-12-02T01:50:47.911Z,57.30
2018-12-02T01:51:25.969Z,57.30
2018-12-02T01:52:03.581Z,57.40
2018-12-02T01:52:41.189Z,57.30
2018-12-02T01:53:18.879Z,57.40
2018-12-02T01:53:56.858Z,57.40
2018-12-02T01:54:34.360Z,57.40
2018-12-02T01:55:12.032Z,57.40
2018-12-02T01:55:49.703Z,57.30
2018-12-02T01:56:27.656Z,57.40
2018-12-02T01:57:05.212Z,57.40
2018-12-02T01:57:43.762Z,57.40
2018-12-02T01:58:21.520Z,57.40
2018-12-02T01:58:59.143Z,57.40
2018-12-02T01:59:36.889Z,57.50
2018-12-02T02:00:14.411Z,57.50
2018-12-02T02:00:52.593Z,57.40
2018-12-02T02:01:30.054Z,57.30
2018-12-02T02:02:07.754Z,57.20
2018-12-02T02:02:45.245Z,57.30
2018-12-02T02:03:22.752Z,57.20
2018-12-02T02:04:00.293Z,57.20
2018-12-02T02:04:37.822Z,57.10
2018-12-02T02:05:15.638Z,56.90
2018-12-02T02:05:53.294Z,57.00
2018-12-02T02:06:31.045Z,57.00
2018-12-02T02:07:08.610Z,56.90
2018-12-02T02:07:46.372Z,57.00
2018-12-02T02:08:24.062Z,57.10
2018-12-02T02:09:01.755Z,57.00
2018-12-02T02:09:39.633Z,57.00
2018-12-02T02:10:17.655Z,57.00
2018-12-02T02:10:54.996Z,57.00
2018-12-02T02:11:32.707Z,57.00
2018-12-02T02:12:10.355Z,57.00
2018-12-02T02:12:47.927Z,57.10
2018-12-02T02:13:25.577Z,57.10
2018-12-02T02:14:02.933Z,57.10
2018-12-02T02:14:40.902Z,57.10
2018-12-02T02:15:18.489Z,57.10
2018-12-02T02:15:56.191Z,57.10
2018-12-02T02:16:34.010Z,57.10
2018-12-02T02:17:11.944Z,57.20
2018-12-02T02:17:49.618Z,57.20
2018-12-02T02:18:27.402Z,57.20
2018-12-02T02:19:04.992Z,57.20
2018-12-02T02:19:42.679Z,57.30
2018-12-02T02:20:20.356Z,57.30
2018-12-02T02:20:58.300Z,57.30
2018-12-02T02:21:35.752Z,57.30
2018-12-02T02:22:13.133Z,57.20
2018-12-02T02:22:50.874Z,57.20
2018-12-02T02:23:28.809Z,57.30
2018-12-02T02:24:07.380Z,57.30
2018-12-02T02:24:45.003Z,57.30
2018-12-02T02:25:23.066Z,57.30
2018-12-02T02:26:00.771Z,57.30
2018-12-02T02:26:38.245Z,57.40
2018-12-02T02:27:15.791Z,57.50
2018-12-02T02:27:53.592Z,57.50
2018-12-02T02:28:31.175Z,57.40
2018-12-02T02:29:08.877Z,57.60
2018-12-02T02:29:46.453Z,57.60
2018-12-02T02:30:23.975Z,57.60
2018-12-02T02:31:01.616Z,57.80
2018-12-02T02:31:39.895Z,57.60
2018-12-02T02:32:17.575Z,58.20
2018-12-02T02:32:55.115Z,57.50
2018-12-02T02:33:32.573Z,57.50
2018-12-02T02:34:10.535Z,57.60
2018-12-02T02:34:48.239Z,57.60
2018-12-02T02:35:26.142Z,57.60
2018-12-02T02:36:03.606Z,57.70
2018-12-02T02:36:41.295Z,57.60
2018-12-02T02:37:18.881Z,57.60
2018-12-02T02:37:56.416Z,57.60
2018-12-02T02:38:34.154Z,57.70
2018-12-02T02:39:11.692Z,57.70
2018-12-02T02:39:49.180Z,57.70
2018-12-02T02:40:27.084Z,57.80
2018-12-02T02:41:04.670Z,57.90
2018-12-02T02:41:42.312Z,57.80
2018-12-02T02:42:19.842Z,57.80
2018-12-02T02:42:57.367Z,57.80
2018-12-02T02:43:34.888Z,57.80
2018-12-02T02:44:12.745Z,57.80
2018-12-02T02:44:50.342Z,57.80
2018-12-02T02:45:28.166Z,57.80
2018-12-02T02:46:05.982Z,57.70
2018-12-02T02:46:43.626Z,57.80
2018-12-02T02:47:21.266Z,57.80
2018-12-02T02:47:58.750Z,57.80
2018-12-02T02:48:36.379Z,57.80
2018-12-02T02:49:14.055Z,57.90
2018-12-02T02:49:51.797Z,57.80
2018-12-02T02:50:29.473Z,57.80
2018-12-02T02:51:06.871Z,57.80
2018-12-02T02:51:44.361Z,57.80
2018-12-02T02:52:21.916Z,57.80
2018-12-02T02:52:59.439Z,57.80
2018-12-02T02:53:36.969Z,57.80
2018-12-02T02:54:14.650Z,57.80
2018-12-02T02:54:52.161Z,57.80
2018-12-02T02:55:29.930Z,57.70
2018-12-02T02:56:07.410Z,57.80
2018-12-02T02:56:44.808Z,57.80
2018-12-02T02:57:22.410Z,57.80
2018-12-02T02:57:59.981Z,57.80
2018-12-02T02:58:37.659Z,57.80
2018-12-02T02:59:15.131Z,57.80
2018-12-02T02:59:52.686Z,57.80
2018-12-02T03:00:30.051Z,57.80
2018-12-02T03:01:07.642Z,57.80
2018-12-02T03:01:45.522Z,57.80
2018-12-02T03:02:23.377Z,57.80
2018-12-02T03:03:01.003Z,57.70
2018-12-02T03:03:38.643Z,57.90
2018-12-02T03:04:16.277Z,57.90
2018-12-02T03:04:54.160Z,57.80
2018-12-02T03:05:31.858Z,57.90
2018-12-02T03:06:09.690Z,57.80
2018-12-02T03:06:47.241Z,57.90
2018-12-02T03:07:25.381Z,57.90
2018-12-02T03:08:02.980Z,57.90
2018-12-02T03:08:40.799Z,57.90
2018-12-02T03:09:18.284Z,57.80
2018-12-02T03:09:56.053Z,57.90
2018-12-02T03:10:33.709Z,58.00
2018-12-02T03:11:11.189Z,57.90
2018-12-02T03:11:48.772Z,57.90
2018-12-02T03:12:26.404Z,57.90
2018-12-02T03:13:04.056Z,57.90
2018-12-02T03:13:41.935Z,57.80
2018-12-02T03:14:19.664Z,57.80
2018-12-02T03:14:57.307Z,57.70
2018-12-02T03:15:35.165Z,57.70
2018-12-02T03:16:12.784Z,57.70
2018-12-02T03:16:50.643Z,57.80
2018-12-02T03:17:28.663Z,57.90
2018-12-02T03:18:06.513Z,57.90
2018-12-02T03:18:44.356Z,57.90
2018-12-02T03:19:22.162Z,57.90
2018-12-02T03:20:00.033Z,57.90
2018-12-02T03:20:37.881Z,57.80
2018-12-02T03:21:15.490Z,57.80
2018-12-02T03:21:53.421Z,58.00
2018-12-02T03:22:31.356Z,58.00
2018-12-02T03:23:09.794Z,58.50
2018-12-02T03:23:47.199Z,57.90
2018-12-02T03:24:24.979Z,57.90
2018-12-02T03:25:02.613Z,57.80
2018-12-02T03:25:40.418Z,57.90
2018-12-02T03:26:18.156Z,58.00
2018-12-02T03:26:55.778Z,57.90
2018-12-02T03:27:33.628Z,57.80
2018-12-02T03:28:11.211Z,57.90
2018-12-02T03:28:48.802Z,57.80
2018-12-02T03:29:26.658Z,57.90
2018-12-02T03:30:04.416Z,58.00
2018-12-02T03:30:42.019Z,57.90
2018-12-02T03:31:19.854Z,57.90
2018-12-02T03:31:57.738Z,58.00
2018-12-02T03:32:35.511Z,57.90
2018-12-02T03:33:13.311Z,57.90
2018-12-02T03:33:51.296Z,57.90
2018-12-02T03:34:28.994Z,58.00
2018-12-02T03:35:06.373Z,58.00
2018-12-02T03:35:44.239Z,58.00
2018-12-02T03:36:22.312Z,58.00
2018-12-02T03:37:00.322Z,58.00
2018-12-02T03:37:38.001Z,58.10
2018-12-02T03:38:15.817Z,58.10
2018-12-02T03:38:53.299Z,58.10
2018-12-02T03:39:30.901Z,58.00
2018-12-02T03:40:09.592Z,58.00
2018-12-02T03:40:47.250Z,58.00
2018-12-02T03:41:24.891Z,58.00
2018-12-02T03:42:02.549Z,58.10
2018-12-02T03:42:39.980Z,58.10
2018-12-02T03:43:17.759Z,58.00
2018-12-02T03:43:55.478Z,58.00
2018-12-02T03:44:33.040Z,58.10
2018-12-02T03:45:10.717Z,58.00
2018-12-02T03:45:48.257Z,58.00
2018-12-02T03:46:25.739Z,58.00
2018-12-02T03:47:03.486Z,58.00
2018-12-02T03:47:41.701Z,58.00
2018-12-02T03:48:19.589Z,57.90
2018-12-02T03:48:57.167Z,58.00
2018-12-02T03:49:34.650Z,58.00
2018-12-02T03:50:17.442Z,58.10
2018-12-02T03:50:50.212Z,58.10
2018-12-02T03:51:27.876Z,58.00
2018-12-02T03:52:05.577Z,58.00
2018-12-02T03:52:43.449Z,58.00
2018-12-02T03:53:21.186Z,58.00
2018-12-02T03:53:59.760Z,58.00
2018-12-02T03:54:37.121Z,58.00
2018-12-02T03:55:14.766Z,58.00
2018-12-02T03:55:52.544Z,58.10
2018-12-02T03:56:30.157Z,58.00
2018-12-02T03:57:07.743Z,58.00
2018-12-02T03:57:45.516Z,58.00
2018-12-02T03:58:23.024Z,58.10
2018-12-02T03:59:01.192Z,58.00
2018-12-02T03:59:39.103Z,58.00
2018-12-02T04:00:16.931Z,58.10
2018-12-02T04:00:54.589Z,58.40
2018-12-02T04:01:32.380Z,58.00
2018-12-02T04:02:10.289Z,57.90
2018-12-02T04:02:47.892Z,57.90
2018-12-02T04:03:25.699Z,57.90
2018-12-02T04:04:03.181Z,57.90
2018-12-02T04:04:40.980Z,58.00
2018-12-02T04:05:18.878Z,58.00
2018-12-02T04:05:56.337Z,58.00
2018-12-02T04:06:33.921Z,58.00
2018-12-02T04:07:11.568Z,58.00
2018-12-02T04:07:49.067Z,58.00
2018-12-02T04:08:26.700Z,58.00
2018-12-02T04:09:04.146Z,58.00
2018-12-02T04:09:41.624Z,58.10
2018-12-02T04:10:19.064Z,58.10
2018-12-02T04:10:57.499Z,58.20
2018-12-02T04:11:35.077Z,58.00
2018-12-02T04:12:12.752Z,58.00
2018-12-02T04:12:50.894Z,58.00
2018-12-02T04:13:28.342Z,58.00
2018-12-02T04:14:06.726Z,58.00
2018-12-02T04:14:44.333Z,58.00
2018-12-02T04:15:22.130Z,58.10
2018-12-02T04:15:59.843Z,58.10
2018-12-02T04:16:37.277Z,58.00
2018-12-02T04:17:14.816Z,58.00
2018-12-02T04:17:52.434Z,57.90
2018-12-02T04:18:30.520Z,58.10
2018-12-02T04:19:08.125Z,58.00
2018-12-02T04:19:45.616Z,58.00
2018-12-02T04:20:23.310Z,58.10
2018-12-02T04:21:00.879Z,58.10
2018-12-02T04:21:38.556Z,58.10
2018-12-02T04:22:16.142Z,58.10
2018-12-02T04:22:53.690Z,58.10
2018-12-02T04:23:31.242Z,58.10
2018-12-02T04:24:09.058Z,58.10
2018-12-02T04:24:46.855Z,58.00
2018-12-02T04:25:24.559Z,58.10
2018-12-02T04:26:02.219Z,58.00
2018-12-02T04:26:39.964Z,58.10
2018-12-02T04:27:17.686Z,58.00
2018-12-02T04:27:55.263Z,58.10
2018-12-02T04:28:33.045Z,58.00
2018-12-02T04:29:10.524Z,58.10
2018-12-02T04:29:48.156Z,58.10
2018-12-02T04:30:26.133Z,58.20
2018-12-02T04:31:04.645Z,58.00
2018-12-02T04:31:42.515Z,58.10
2018-12-02T04:32:19.983Z,58.10
2018-12-02T04:32:57.971Z,58.10
2018-12-02T04:33:35.579Z,58.10
2018-12-02T04:34:13.246Z,58.20
2018-12-02T04:34:50.887Z,58.20
2018-12-02T04:35:28.688Z,58.20
2018-12-02T04:36:06.218Z,58.20
2018-12-02T04:36:43.893Z,58.30
2018-12-02T04:37:21.550Z,58.30
2018-12-02T04:37:58.940Z,58.20
2018-12-02T04:38:36.517Z,58.30
2018-12-02T04:39:14.160Z,58.30
2018-12-02T04:39:51.842Z,58.30
2018-12-02T04:40:29.490Z,58.30
2018-12-02T04:41:06.993Z,58.30
2018-12-02T04:41:44.756Z,58.30
2018-12-02T04:42:22.527Z,58.30
2018-12-02T04:43:00.177Z,58.30
2018-12-02T04:43:37.807Z,58.30
2018-12-02T04:44:15.296Z,58.20
2018-12-02T04:44:53.163Z,58.30
2018-12-02T04:45:30.766Z,58.40
2018-12-02T04:46:09.295Z,58.30
2018-12-02T04:46:46.884Z,58.30
2018-12-02T04:47:24.657Z,58.30
2018-12-02T04:48:02.409Z,58.40
2018-12-02T04:48:39.944Z,58.40
2018-12-02T04:49:17.554Z,58.30
2018-12-02T04:49:55.095Z,58.20
2018-12-02T04:50:32.972Z,58.20
2018-12-02T04:51:10.739Z,58.20
2018-12-02T04:51:48.443Z,58.20
2018-12-02T04:52:26.232Z,58.20
2018-12-02T04:53:03.829Z,58.20
2018-12-02T04:53:41.345Z,58.40
2018-12-02T04:54:19.104Z,58.30
2018-12-02T04:54:56.592Z,58.20
2018-12-02T04:55:34.292Z,58.30
2018-12-02T04:56:11.831Z,58.30
2018-12-02T04:56:49.471Z,58.30
2018-12-02T04:57:27.148Z,58.30
2018-12-02T04:58:04.901Z,58.30
2018-12-02T04:58:42.629Z,58.30
2018-12-02T04:59:20.126Z,58.20
2018-12-02T04:59:57.689Z,58.40
2018-12-02T05:00:35.449Z,58.60
2018-12-02T05:01:13.211Z,58.50
2018-12-02T05:01:50.754Z,58.40
2018-12-02T05:02:28.515Z,58.40
2018-12-02T05:03:06.087Z,58.40
2018-12-02T05:03:43.779Z,58.30
2018-12-02T05:04:21.508Z,58.30
2018-12-02T05:04:59.652Z,58.10
2018-12-02T05:05:37.589Z,58.30
2018-12-02T05:06:15.072Z,58.30
2018-12-02T05:06:52.572Z,58.20
2018-12-02T05:07:30.110Z,58.30
2018-12-02T05:08:07.748Z,58.20
2018-12-02T05:08:45.473Z,58.00
2018-12-02T05:09:23.351Z,58.20
2018-12-02T05:10:01.124Z,58.20
2018-12-02T05:10:38.927Z,58.30
2018-12-02T05:11:16.359Z,58.30
2018-12-02T05:11:54.074Z,58.10
2018-12-02T05:12:31.596Z,58.10
2018-12-02T05:13:09.052Z,58.10
2018-12-02T05:13:46.551Z,58.00
2018-12-02T05:14:24.273Z,58.10
2018-12-02T05:15:01.674Z,58.10
2018-12-02T05:15:39.375Z,58.00
2018-12-02T05:16:17.174Z,58.50
2018-12-02T05:16:55.111Z,58.00
2018-12-02T05:17:32.600Z,58.00
2018-12-02T05:18:10.335Z,58.00
2018-12-02T05:18:47.882Z,58.00
2018-12-02T05:19:25.635Z,58.10
2018-12-02T05:20:03.449Z,58.20
2018-12-02T05:20:41.154Z,58.10
2018-12-02T05:21:18.913Z,58.10
2018-12-02T05:21:56.633Z,58.10
2018-12-02T05:22:34.670Z,58.20
2018-12-02T05:23:12.534Z,58.20
2018-12-02T05:23:50.173Z,58.20
2018-12-02T05:24:27.643Z,58.20
2018-12-02T05:25:05.286Z,58.20
2018-12-02T05:25:42.982Z,58.20
2018-12-02T05:26:20.886Z,58.20
2018-12-02T05:26:58.505Z,58.90
2018-12-02T05:27:36.140Z,58.20
2018-12-02T05:28:13.720Z,58.90
2018-12-02T05:28:51.318Z,58.20
2018-12-02T05:29:28.989Z,58.30
2018-12-02T05:30:06.354Z,58.20
2018-12-02T05:30:43.861Z,58.20
2018-12-02T05:31:21.542Z,58.30
2018-12-02T05:31:59.274Z,58.30
2018-12-02T05:32:37.026Z,58.30
2018-12-02T05:33:14.664Z,58.30
2018-12-02T05:33:52.175Z,58.30
2018-12-02T05:34:29.965Z,58.30
2018-12-02T05:35:07.585Z,58.30
2018-12-02T05:35:45.399Z,58.30
2018-12-02T05:36:23.428Z,58.30
2018-12-02T05:37:00.896Z,58.20
2018-12-02T05:37:38.612Z,58.30
2018-12-02T05:38:16.205Z,58.30
2018-12-02T05:38:53.714Z,58.30
2018-12-02T05:39:31.403Z,58.40
2018-12-02T05:40:08.974Z,58.40
2018-12-02T05:40:46.873Z,58.20
2018-12-02T05:41:24.256Z,58.10
2018-12-02T05:42:01.934Z,58.30
2018-12-02T05:42:40.013Z,58.20
2018-12-02T05:43:17.875Z,58.20
2018-12-02T05:43:55.602Z,58.20
2018-12-02T05:44:33.015Z,58.20
2018-12-02T05:45:10.758Z,58.20
2018-12-02T05:45:48.584Z,58.30
2018-12-02T05:47:10.044Z,58.30
2018-12-02T05:47:47.693Z,58.40
2018-12-02T05:48:25.333Z,58.30
2018-12-02T05:49:02.802Z,58.30
2018-12-02T05:49:40.515Z,58.30
2018-12-02T05:50:17.902Z,58.20
2018-12-02T05:50:55.243Z,58.30
2018-12-02T05:51:32.945Z,58.50
2018-12-02T05:52:10.497Z,58.50
2018-12-02T05:52:48.544Z,58.40
2018-12-02T05:53:25.994Z,58.30
2018-12-02T05:54:03.552Z,58.40
2018-12-02T05:54:41.286Z,58.20
2018-12-02T05:55:19.197Z,58.20
2018-12-02T05:55:56.808Z,58.20
2018-12-02T05:56:34.254Z,58.20
2018-12-02T05:57:12.094Z,58.30
2018-12-02T05:57:49.961Z,57.90
2018-12-02T05:58:27.564Z,58.40
2018-12-02T05:59:06.273Z,58.30
2018-12-02T05:59:43.615Z,58.40
2018-12-02T06:00:21.474Z,58.30
2018-12-02T06:00:59.274Z,58.30
2018-12-02T06:01:36.936Z,58.30
2018-12-02T06:02:14.805Z,58.30
2018-12-02T06:02:52.476Z,58.30
2018-12-02T06:03:30.305Z,58.40
2018-12-02T06:04:07.993Z,58.50
2018-12-02T06:04:45.816Z,58.40
2018-12-02T06:05:23.369Z,58.50
2018-12-02T06:06:01.119Z,58.60
2018-12-02T06:06:39.067Z,58.70
2018-12-02T06:07:16.506Z,58.60
2018-12-02T06:07:54.235Z,58.50
2018-12-02T06:08:31.964Z,58.50
2018-12-02T06:09:09.503Z,58.30
2018-12-02T06:09:47.187Z,58.30
2018-12-02T06:10:24.611Z,58.40
2018-12-02T06:11:43.879Z,58.30
2018-12-02T06:12:21.296Z,58.40
2018-12-02T06:12:58.991Z,58.40
2018-12-02T06:13:36.843Z,58.50
2018-12-02T06:14:14.256Z,58.60
2018-12-02T06:14:51.740Z,58.40
2018-12-02T06:15:29.492Z,58.40
2018-12-02T06:16:07.048Z,58.40
2018-12-02T06:16:44.788Z,58.50
2018-12-02T06:17:22.455Z,58.50
2018-12-02T06:17:59.843Z,58.50
2018-12-02T06:18:37.643Z,58.50
2018-12-02T06:19:15.244Z,58.40
2018-12-02T06:19:52.993Z,58.50
2018-12-02T06:20:30.615Z,58.50
2018-12-02T06:21:08.345Z,58.50
2018-12-02T06:21:45.985Z,58.50
2018-12-02T06:22:23.882Z,58.50
2018-12-02T06:23:01.464Z,58.50
2018-12-02T06:23:39.227Z,58.60
2018-12-02T06:24:16.763Z,58.50
2018-12-02T06:24:54.585Z,58.50
2018-12-02T06:25:32.124Z,58.50
2018-12-02T06:26:09.834Z,58.50
2018-12-02T06:26:47.268Z,58.40
2018-12-02T06:27:25.403Z,58.60
2018-12-02T06:28:03.452Z,58.60
2018-12-02T06:28:40.984Z,58.70
2018-12-02T06:29:18.524Z,58.60
2018-12-02T06:29:56.225Z,58.60
2018-12-02T06:30:33.591Z,58.60
2018-12-02T06:31:11.238Z,58.50
2018-12-02T06:31:48.783Z,59.10
2018-12-02T06:32:26.685Z,58.40
2018-12-02T06:33:04.300Z,58.50
2018-12-02T06:33:41.953Z,58.40
2018-12-02T06:34:19.531Z,58.40
2018-12-02T06:34:57.265Z,58.50
2018-12-02T06:35:35.314Z,58.50
2018-12-02T06:36:12.874Z,59.00
2018-12-02T06:36:50.584Z,58.40
2018-12-02T06:37:28.303Z,58.40
2018-12-02T06:38:05.893Z,58.40
2018-12-02T06:38:43.503Z,58.50
2018-12-02T06:39:20.896Z,58.40
2018-12-02T06:39:58.604Z,58.40
2018-12-02T06:40:36.233Z,58.40
2018-12-02T06:41:14.064Z,58.50
2018-12-02T06:41:51.589Z,58.40
2018-12-02T06:42:29.334Z,58.40
2018-12-02T06:43:07.172Z,58.40
2018-12-02T06:43:44.843Z,58.30
2018-12-02T06:44:22.401Z,58.40
2018-12-02T06:45:00.053Z,58.40
2018-12-02T06:45:37.917Z,58.40
2018-12-02T06:46:15.706Z,58.30
2018-12-02T06:46:53.207Z,58.30
2018-12-02T06:47:30.871Z,58.40
2018-12-02T06:48:08.581Z,58.40
2018-12-02T06:48:46.313Z,58.40
2018-12-02T06:49:23.954Z,58.30
2018-12-02T06:50:01.584Z,58.30
2018-12-02T06:50:39.259Z,58.40
2018-12-02T06:51:16.901Z,59.00
2018-12-02T06:51:54.471Z,58.50
2018-12-02T06:52:32.060Z,58.60
2018-12-02T06:53:09.820Z,58.50
2018-12-02T06:53:47.222Z,58.50
2018-12-02T06:54:24.811Z,58.50
2018-12-02T06:55:02.230Z,58.50
2018-12-02T06:55:39.874Z,58.40
2018-12-02T06:56:17.621Z,58.40
2018-12-02T06:56:55.424Z,58.40
2018-12-02T06:57:33.011Z,58.50
2018-12-02T06:58:10.481Z,58.40
2018-12-02T06:58:48.101Z,58.50
2018-12-02T06:59:25.540Z,58.40
2018-12-02T07:00:03.194Z,58.50
2018-12-02T07:00:40.893Z,58.40
2018-12-02T07:01:18.761Z,58.50
2018-12-02T07:01:56.362Z,58.50
2018-12-02T07:02:34.082Z,58.50
2018-12-02T07:03:11.609Z,58.50
2018-12-02T07:03:49.262Z,58.50
2018-12-02T07:04:27.104Z,58.50
2018-12-02T07:05:04.890Z,58.50
2018-12-02T07:05:42.571Z,58.50
2018-12-02T07:06:20.630Z,58.50
2018-12-02T07:06:58.852Z,58.60
2018-12-02T07:07:36.599Z,58.50
2018-12-02T07:08:14.505Z,58.60
2018-12-02T07:08:52.132Z,58.60
2018-12-02T07:09:29.734Z,58.50
2018-12-02T07:10:07.509Z,58.50
2018-12-02T07:10:45.371Z,58.50
2018-12-02T07:11:23.003Z,58.50
2018-12-02T07:12:00.709Z,58.50
2018-12-02T07:12:38.141Z,58.40
2018-12-02T07:13:15.838Z,58.50
2018-12-02T07:13:53.470Z,58.50
2018-12-02T07:14:31.059Z,58.60
2018-12-02T07:15:08.504Z,58.60
2018-12-02T07:15:46.248Z,58.50
2018-12-02T07:16:23.826Z,58.40
2018-12-02T07:17:01.395Z,58.40
2018-12-02T07:17:38.791Z,58.40
2018-12-02T07:18:16.279Z,58.50
2018-12-02T07:18:53.893Z,58.40
2018-12-02T07:19:31.358Z,58.50
2018-12-02T07:20:09.018Z,58.60
2018-12-02T07:20:46.825Z,58.60
2018-12-02T07:21:24.388Z,58.60
2018-12-02T07:22:02.132Z,58.50
2018-12-02T07:22:39.521Z,58.50
2018-12-02T07:23:16.925Z,58.40
2018-12-02T07:23:54.592Z,58.60
2018-12-02T07:24:32.251Z,58.50
2018-12-02T07:25:09.778Z,58.60
2018-12-02T07:25:47.435Z,58.80
2018-12-02T07:26:24.924Z,58.50
2018-12-02T07:27:02.572Z,58.50
2018-12-02T07:27:39.971Z,58.50
2018-12-02T07:28:17.671Z,58.50
2018-12-02T07:28:55.361Z,58.50
2018-12-02T07:29:33.032Z,58.50
2018-12-02T07:30:10.776Z,58.80
2018-12-02T07:30:48.419Z,58.40
2018-12-02T07:31:27.064Z,58.40
2018-12-02T07:32:04.667Z,58.40
2018-12-02T07:32:42.610Z,58.30
2018-12-02T07:33:20.478Z,58.30
2018-12-02T07:33:58.475Z,58.30
2018-12-02T07:34:36.300Z,58.40
2018-12-02T07:35:14.091Z,58.40
2018-12-02T07:35:51.877Z,58.40
2018-12-02T07:36:29.298Z,58.50
2018-12-02T07:37:06.963Z,58.60
2018-12-02T07:37:44.538Z,58.50
2018-12-02T07:38:22.611Z,58.60
2018-12-02T07:39:00.220Z,58.60
2018-12-02T07:39:37.901Z,58.60
2018-12-02T07:40:15.770Z,58.60
2018-12-02T07:40:53.618Z,58.50
2018-12-02T07:41:31.440Z,58.50
2018-12-02T07:42:09.003Z,58.70
2018-12-02T07:42:46.711Z,58.70
2018-12-02T07:43:24.243Z,58.70
2018-12-02T07:44:02.064Z,58.60
2018-12-02T07:44:39.524Z,58.60
2018-12-02T07:45:17.104Z,58.50
2018-12-02T07:45:54.793Z,58.60
2018-12-02T07:46:32.392Z,58.50
2018-12-02T07:47:10.096Z,58.50
2018-12-02T07:47:48.584Z,58.50
2018-12-02T07:48:26.281Z,58.40
2018-12-02T07:49:03.875Z,58.50
2018-12-02T07:49:41.666Z,58.50
2018-12-02T07:50:19.356Z,58.50
2018-12-02T07:50:56.745Z,58.50
2018-12-02T07:51:34.228Z,58.50
2018-12-02T07:52:12.105Z,58.40
2018-12-02T07:52:50.070Z,58.40
2018-12-02T07:53:27.676Z,58.50
2018-12-02T07:54:05.461Z,58.40
2018-12-02T07:54:43.216Z,58.50
2018-12-02T07:55:20.722Z,58.90
2018-12-02T07:55:58.269Z,58.70
2018-12-02T07:56:36.190Z,58.60
2018-12-02T07:57:13.870Z,58.60
2018-12-02T07:57:51.510Z,58.60
2018-12-02T07:58:29.350Z,58.60
2018-12-02T07:59:06.885Z,58.60
2018-12-02T07:59:44.358Z,58.60
2018-12-02T08:00:21.986Z,59.30
2018-12-02T08:00:59.478Z,58.80
2018-12-02T08:01:36.894Z,58.70
2018-12-02T08:02:14.743Z,58.80
2018-12-02T08:02:52.285Z,58.70
2018-12-02T08:03:29.953Z,58.70
2018-12-02T08:04:07.854Z,58.80
2018-12-02T08:04:45.454Z,59.30
2018-12-02T08:05:23.125Z,59.10
2018-12-02T08:06:01.015Z,59.10
2018-12-02T08:06:38.612Z,59.10